createdAt,value
2023-03-23T00:02:49.813Z,67
2023-03-23T00:07:55.773Z,67
2023-03-23T00:13:01.931Z,66
2023-03-23T00:18:07.921Z,64.5
2023-03-23T00:23:13.971Z,66.5
2023-03-23T00:28:20.213Z,67.5
2023-03-23T00:33:26.164Z,68.5
2023-03-23T00:38:32.355Z,68.5
2023-03-23T00:43:37.482Z,69
2023-03-23T00:48:43.565Z,67.5
2023-03-23T00:53:49.559Z,65.5
2023-03-23T00:58:55.652Z,65
2023-03-23T01:04:01.828Z,64.5
2023-03-23T01:09:07.890Z,64
2023-03-23T01:14:14.031Z,63.5
2023-03-23T01:19:20.021Z,63
2023-03-23T01:24:26.197Z,63.5
2023-03-23T01:29:32.351Z,64
2023-03-23T01:34:38.359Z,64.5
2023-03-23T01:39:44.549Z,65
2023-03-23T01:44:50.658Z,65.5
2023-03-23T01:49:55.781Z,66
2023-03-23T01:55:01.924Z,66.5
2023-03-23T02:00:07.978Z,67
2023-03-23T02:05:13.976Z,66
2023-03-23T02:10:20.006Z,65
2023-03-23T02:15:26.332Z,64.5
2023-03-23T02:20:32.359Z,65
2023-03-23T02:25:38.536Z,65.5
2023-03-23T02:30:44.422Z,64.5
2023-03-23T02:35:50.487Z,64
2023-03-23T02:40:56.653Z,62.5
2023-03-23T02:46:02.688Z,62.5
2023-03-23T02:51:08.881Z,62
2023-03-23T02:56:13.987Z,61
2023-03-23T03:01:19.990Z,61
2023-03-23T03:06:26.232Z,61.5
2023-03-23T03:11:32.395Z,62.5
2023-03-23T03:16:38.364Z,62.5
2023-03-23T03:21:44.471Z,63.5
2023-03-23T03:26:50.464Z,63.5
2023-03-23T03:31:56.664Z,63.5
2023-03-23T03:37:02.657Z,64
2023-03-23T03:42:08.892Z,64.5
2023-03-23T03:47:14.912Z,64
2023-03-23T03:52:20.995Z,64.5
2023-03-23T03:57:27.134Z,65.5
2023-03-23T04:02:32.266Z,65.5
2023-03-23T04:07:38.251Z,65.5
2023-03-23T04:12:44.540Z,65
2023-03-23T04:17:50.563Z,65.5
2023-03-23T04:22:56.615Z,66
2023-03-23T04:28:02.773Z,65
2023-03-23T04:33:08.728Z,65.5
2023-03-23T04:38:14.867Z,65.5
2023-03-23T04:43:20.934Z,66
2023-03-23T04:48:27.024Z,66.5
2023-03-23T04:53:33.191Z,67.5
2023-03-23T04:58:39.222Z,68
2023-03-23T05:03:45.318Z,68
2023-03-23T05:08:50.422Z,68.5
2023-03-23T05:13:56.529Z,68.5
2023-03-23T05:19:02.601Z,69
2023-03-23T05:24:08.873Z,69.5
2023-03-23T05:29:14.990Z,70.5
2023-03-23T05:34:20.904Z,71.5
2023-03-23T05:39:27.096Z,74
2023-03-23T05:44:33.323Z,73
2023-03-23T05:49:39.173Z,73.5
2023-03-23T05:54:45.457Z,75
2023-03-23T05:59:51.515Z,76
2023-03-23T06:04:57.485Z,77.5
2023-03-23T06:10:03.707Z,77.5
2023-03-23T06:15:08.866Z,80
2023-03-23T06:20:14.774Z,82
2023-03-23T06:25:21.042Z,80
2023-03-23T06:30:27.115Z,82
2023-03-23T06:35:33.143Z,81
2023-03-23T06:40:39.267Z,80.5
2023-03-23T06:45:45.413Z,81.5
2023-03-23T06:50:51.516Z,82.5
2023-03-23T06:55:57.467Z,83.5
2023-03-23T07:01:03.626Z,83
2023-03-23T07:06:09.822Z,83
2023-03-23T07:11:15.967Z,84
2023-03-23T07:16:21.925Z,84
2023-03-23T07:21:27.034Z,83.5
2023-03-23T07:26:33.023Z,82
2023-03-23T07:31:39.258Z,83
2023-03-23T07:36:45.394Z,83
2023-03-23T07:41:51.456Z,82
2023-03-23T07:46:57.421Z,81.5
2023-03-23T07:52:03.670Z,82
2023-03-23T07:57:09.587Z,81.5
2023-03-23T08:02:15.688Z,82
2023-03-23T08:07:21.945Z,82
2023-03-23T08:12:27.876Z,83.5
2023-03-23T08:17:34.043Z,83
2023-03-23T08:22:40.166Z,82
2023-03-23T08:27:45.187Z,80.5
2023-03-23T08:32:51.451Z,79
2023-03-23T08:37:57.407Z,80
2023-03-23T08:43:03.501Z,78.5
2023-03-23T08:48:09.605Z,77
2023-03-23T08:53:15.721Z,77
2023-03-23T08:58:21.821Z,75.5
2023-03-23T09:03:27.886Z,73.5
2023-03-23T09:08:33.950Z,73.5
2023-03-23T09:13:40.207Z,75
2023-03-23T09:18:46.121Z,75.5
2023-03-23T09:23:52.374Z,72.5
2023-03-23T09:28:58.353Z,71.5
2023-03-23T09:34:03.475Z,72
2023-03-23T09:39:09.534Z,70.5
2023-03-23T09:44:15.614Z,72
2023-03-23T09:49:21.853Z,70
2023-03-23T09:54:27.975Z,71
2023-03-23T09:59:33.892Z,70.5
2023-03-23T10:04:40.166Z,69.5
2023-03-23T10:09:46.267Z,69.5
2023-03-23T10:14:52.351Z,69
2023-03-23T10:19:58.425Z,68
2023-03-23T10:25:04.468Z,66
2023-03-23T10:30:10.476Z,66.5
2023-03-23T10:35:16.630Z,67
2023-03-23T10:40:21.873Z,65.5
2023-03-23T10:45:27.766Z,65
2023-03-23T10:50:33.933Z,65
2023-03-23T10:55:40.012Z,64.5
2023-03-23T11:00:46.042Z,63.5
2023-03-23T11:05:52.145Z,63
2023-03-23T11:10:58.220Z,62.5
2023-03-23T11:16:04.310Z,64
2023-03-23T11:21:10.480Z,63
2023-03-23T11:26:16.654Z,63.5
2023-03-23T11:31:22.615Z,64
2023-03-23T11:36:28.755Z,65.5
2023-03-23T11:41:34.814Z,66
2023-03-23T11:46:39.969Z,66.5
2023-03-23T11:51:46.163Z,65
2023-03-23T11:56:52.191Z,65
2023-03-23T12:01:58.386Z,65.5
2023-03-23T12:07:04.456Z,65
2023-03-23T12:12:10.530Z,65
2023-03-23T12:17:16.684Z,64
2023-03-23T12:22:22.740Z,63
2023-03-23T12:27:28.798Z,63
2023-03-23T12:32:34.738Z,62
2023-03-23T12:37:41.009Z,61.5
2023-03-23T12:42:47.009Z,60.5
2023-03-23T12:47:53.028Z,59.5
2023-03-23T12:52:58.114Z,61.5
2023-03-23T12:58:04.233Z,60.5
2023-03-23T13:03:10.320Z,61.5
2023-03-23T13:08:16.414Z,61.5
2023-03-23T13:13:22.744Z,63
2023-03-23T13:18:28.587Z,64
2023-03-23T13:23:34.701Z,64.5
2023-03-23T13:28:40.795Z,63.5
2023-03-23T13:33:47.038Z,64
2023-03-23T13:38:53.138Z,64.5
2023-03-23T13:43:59.254Z,64.5
2023-03-23T13:49:05.294Z,64
2023-03-23T13:54:11.260Z,64
2023-03-23T13:59:16.486Z,65
2023-03-23T14:04:22.572Z,65.5
2023-03-23T14:09:28.580Z,63
2023-03-23T14:14:34.636Z,64
2023-03-23T14:19:40.730Z,65.5
2023-03-23T14:24:46.819Z,66.5
2023-03-23T14:29:52.081Z,69.5
2023-03-23T14:34:58.233Z,68.5
2023-03-23T14:40:04.169Z,68.5
2023-03-23T14:45:10.217Z,69
2023-03-23T14:50:16.313Z,70
2023-03-23T14:55:22.508Z,70.5
2023-03-23T15:00:28.498Z,69.5
2023-03-23T15:05:34.578Z,69.5
2023-03-23T15:10:40.786Z,70.5
2023-03-23T15:15:46.784Z,69
2023-03-23T15:20:53.011Z,69.5
2023-03-23T15:25:59.074Z,69.5
2023-03-23T15:31:05.175Z,69
2023-03-23T15:36:10.164Z,68.5
2023-03-23T15:41:16.316Z,67.5
2023-03-23T15:46:22.360Z,68.5
2023-03-23T15:51:28.618Z,69.5
2023-03-23T15:56:34.697Z,67.5
2023-03-23T16:01:40.777Z,67.5
2023-03-23T16:06:46.903Z,68.5
2023-03-23T16:11:53.074Z,68.5
2023-03-23T16:16:59.065Z,67
2023-03-23T16:22:05.172Z,68
2023-03-23T16:27:11.233Z,68.5
2023-03-23T16:32:17.394Z,68
2023-03-23T16:37:23.310Z,69.5
2023-03-23T16:42:28.448Z,70
2023-03-23T16:47:34.517Z,68.5
2023-03-23T16:52:40.588Z,69.5
2023-03-23T16:57:46.863Z,69.5
2023-03-23T17:02:52.931Z,70
2023-03-23T17:07:59.052Z,71
2023-03-23T17:13:04.989Z,72
2023-03-23T17:18:11.083Z,73
2023-03-23T17:23:17.370Z,73.5
2023-03-23T17:28:23.438Z,73.5
2023-03-23T17:33:29.346Z,73.5
2023-03-23T17:38:35.494Z,74
2023-03-23T17:43:41.659Z,74
2023-03-23T17:48:46.659Z,74.5
2023-03-23T17:53:52.907Z,75
2023-03-23T17:58:58.850Z,75
2023-03-23T18:04:05.072Z,74.5
2023-03-23T18:09:11.243Z,75.5
2023-03-23T18:14:17.250Z,75
2023-03-23T18:19:23.398Z,75.5
2023-03-23T18:24:29.441Z,75.5
2023-03-23T18:29:35.597Z,76
2023-03-23T18:34:41.533Z,76.5
2023-03-23T18:39:47.820Z,76.5
2023-03-23T18:44:53.897Z,77
2023-03-23T18:49:59.929Z,77
2023-03-23T18:55:05.110Z,77.5
2023-03-23T19:00:11.207Z,78
2023-03-23T19:05:17.252Z,78.5
2023-03-23T19:10:23.437Z,79
2023-03-23T19:15:29.453Z,79.5
2023-03-23T19:20:35.423Z,80
2023-03-23T19:25:41.732Z,81
2023-03-23T19:30:47.766Z,81.5
2023-03-23T19:35:53.795Z,82
2023-03-23T19:40:59.792Z,82.5
2023-03-23T19:46:06.061Z,83
2023-03-23T19:51:12.182Z,83
2023-03-23T19:56:18.254Z,82.5
2023-03-23T20:01:23.266Z,83
2023-03-23T20:06:29.469Z,83.5
2023-03-23T20:11:35.563Z,83.5
2023-03-23T20:16:41.663Z,84
2023-03-23T20:21:47.728Z,84.5
2023-03-23T20:26:53.682Z,85
2023-03-23T20:31:59.897Z,85
2023-03-23T20:37:06.034Z,85
2023-03-23T20:42:12.107Z,85.5
2023-03-23T20:47:18.058Z,85.5
2023-03-23T20:52:24.590Z,84.5
2023-03-23T20:57:30.403Z,85
2023-03-23T21:02:36.602Z,85
2023-03-23T21:07:41.488Z,85.5
2023-03-23T21:12:47.705Z,86
2023-03-23T21:17:53.797Z,85.5
2023-03-23T21:22:59.780Z,85.5
2023-03-23T21:28:05.988Z,85.5
2023-03-23T21:33:12.042Z,86
2023-03-23T21:38:18.179Z,86.5
2023-03-23T21:43:24.253Z,86.5
2023-03-23T21:48:30.328Z,87
2023-03-23T21:53:36.361Z,88
2023-03-23T21:58:42.487Z,88
2023-03-23T22:03:48.497Z,88.5
2023-03-23T22:08:54.583Z,89
2023-03-23T22:13:59.713Z,90
2023-03-23T22:19:05.799Z,90.5
2023-03-23T22:24:11.891Z,91
2023-03-23T22:29:17.989Z,91
2023-03-23T22:34:24.256Z,91
2023-03-23T22:39:30.354Z,90.5
2023-03-23T22:44:36.440Z,89.5
2023-03-23T22:49:42.513Z,88
2023-03-23T22:54:48.607Z,86.5
2023-03-23T22:59:54.579Z,86.5
2023-03-23T23:05:00.687Z,86.5
2023-03-23T23:10:06.745Z,85.5
2023-03-23T23:15:12.983Z,85
2023-03-23T23:20:18.007Z,84.5
2023-03-23T23:25:24.087Z,84
2023-03-23T23:30:30.199Z,84.5
2023-03-23T23:35:36.259Z,85.5
2023-03-23T23:40:42.469Z,86
2023-03-23T23:45:48.451Z,86.5
2023-03-23T23:50:54.627Z,87
2023-03-23T23:56:00.766Z,87
